ソウル/仁川 の空港の天気 - METARとTAF

仁川国際空港 ( RKSI / ICN ) - 大韓民国 仁川広域市 (ソウル特別市近郊)
飛行場実況気象(Metar)
観測時間05/28 04:00 KST (05/27 19:00 UTC)
風向・風速南東 3m/s
視程10km以上
天気現象
なし
気温16℃
湿度72%
気圧1012hPa
METARRKSI 271900Z 13005KT CAVOK 16/11 Q1012 NOSIG
過去の天気等 Google飛行場航空写真 Wunderground天気予報

過去48時間のMETAR

飛行場予報(TAF)
発表時間: 5/28 02:00 KST (5/27 17:00 UTC)
予報対象時間: 28日3時 KST ~ 29日9時 KST
風向・風速南南東 4m/s
視程6,000m
なし
28日11時 KST ~ 28日12時 KST に徐々に
風向・風速南南西 8m/s 瞬間風速 13m/s
視程10km以上
なし
28日20時 KST ~ 28日21時 KST に徐々に
風向・風速南 5m/s
視程6,000m
少しの雲 雲底高度 300m
全天の4割程度の雲 雲底高度 610m
29日1時 KST ~ 29日2時 KST に徐々に
視程3,500m
天気現象もや
29日8時 KST ~ 29日9時 KST に徐々に
風向・風速南西 5m/s
視程6,000m
天気現象運行に影響にある天気現象が終了
TAF RKSI 271700Z 2718/2824 15007KT 6000 NSC TN13/2721Z TX24/2805Z TN15/2820Z
BECMG 2802/2803 21015G25KT CAVOK
BECMG 2811/2812 19010KT 6000 FEW010 SCT020
BECMG 2816/2817 3500 BR
BECMG 2823/2824 22010KT 6000 NSW